sensor_id;sensor_type;location;lat;lon;timestamp;pressure;altitude;pressure_sealevel;temperature;humidity
22605;BME280;11469;49.024;8.246;2023-01-01T00:00:17;100549.84;;;13.83;80.93
22605;BME280;11469;49.024;8.246;2023-01-01T00:02:42;100536.25;;;13.88;80.26
22605;BME280;11469;49.024;8.246;2023-01-01T00:05:08;100543.88;;;14.14;78.89
22605;BME280;11469;49.024;8.246;2023-01-01T00:07:33;100550.53;;;14.33;77.88
22605;BME280;11469;49.024;8.246;2023-01-01T00:09:59;100566.28;;;14.37;77.59
22605;BME280;11469;49.024;8.246;2023-01-01T00:12:43;100557.53;;;14.42;77.36
22605;BME280;11469;49.024;8.246;2023-01-01T00:15:08;100554.31;;;14.44;77.17
22605;BME280;11469;49.024;8.246;2023-01-01T00:17:33;100560.22;;;14.35;77.48
22605;BME280;11469;49.024;8.246;2023-01-01T00:19:59;100562.94;;;14.28;77.59
22605;BME280;11469;49.024;8.246;2023-01-01T00:22:24;100564.53;;;14.25;77.99
22605;BME280;11469;49.024;8.246;2023-01-01T00:24:50;100569.88;;;14.34;77.90
22605;BME280;11469;49.024;8.246;2023-01-01T00:27:15;100561.81;;;14.33;77.34
22605;BME280;11469;49.024;8.246;2023-01-01T00:29:41;100565.09;;;14.38;77.09
22605;BME280;11469;49.024;8.246;2023-01-01T00:32:06;100557.41;;;14.35;77.05
22605;BME280;11469;49.024;8.246;2023-01-01T00:34:31;100566.28;;;14.37;77.05
22605;BME280;11469;49.024;8.246;2023-01-01T00:36:57;100552.69;;;14.43;76.39
22605;BME280;11469;49.024;8.246;2023-01-01T00:39:22;100551.13;;;14.45;76.23
22605;BME280;11469;49.024;8.246;2023-01-01T00:41:47;100554.63;;;14.39;76.88
22605;BME280;11469;49.024;8.246;2023-01-01T00:44:13;100561.81;;;14.33;76.66
22605;BME280;11469;49.024;8.246;2023-01-01T00:46:38;100552.09;;;14.30;76.92
22605;BME280;11469;49.024;8.246;2023-01-01T00:49:04;100560.91;;;14.25;77.07
22605;BME280;11469;49.024;8.246;2023-01-01T00:51:29;100554.81;;;14.23;76.99
22605;BME280;11469;49.024;8.246;2023-01-01T00:53:54;100569.63;;;14.13;77.77
22605;BME280;11469;49.024;8.246;2023-01-01T00:56:20;100570.75;;;14.08;78.02
22605;BME280;11469;49.024;8.246;2023-01-01T00:58:45;100562.25;;;14.05;77.83
22605;BME280;11469;49.024;8.246;2023-01-01T01:01:10;100566.97;;;13.97;78.38
22605;BME280;11469;49.024;8.246;2023-01-01T01:03:39;100572.13;;;13.91;78.56
22605;BME280;11469;49.024;8.246;2023-01-01T01:08:35;100566.66;;;13.76;79.53
22605;BME280;11469;49.024;8.246;2023-01-01T01:11:19;100571.38;;;13.68;79.60
22605;BME280;11469;49.024;8.246;2023-01-01T01:13:46;100581.41;;;13.66;79.59
22605;BME280;11469;49.024;8.246;2023-01-01T01:16:15;100580.09;;;13.59;79.95
22605;BME280;11469;49.024;8.246;2023-01-01T01:18:41;100572.34;;;13.53;80.52
22605;BME280;11469;49.024;8.246;2023-01-01T01:21:07;100577.09;;;13.49;81.06
22605;BME280;11469;49.024;8.246;2023-01-01T01:23:33;100589.25;;;13.53;80.68
22605;BME280;11469;49.024;8.246;2023-01-01T01:26:26;100594.28;;;13.67;79.76
22605;BME280;11469;49.024;8.246;2023-01-01T01:28:52;100596.25;;;13.63;80.31
22605;BME280;11469;49.024;8.246;2023-01-01T01:31:18;100598.63;;;13.60;80.19
22605;BME280;11469;49.024;8.246;2023-01-01T01:33:45;100596.19;;;13.59;80.08
22605;BME280;11469;49.024;8.246;2023-01-01T01:36:11;100599.50;;;13.65;80.00
22605;BME280;11469;49.024;8.246;2023-01-01T01:38:37;100608.00;;;13.68;79.76
22605;BME280;11469;49.024;8.246;2023-01-01T01:41:03;100608.44;;;13.70;79.81
22605;BME280;11469;49.024;8.246;2023-01-01T01:46:02;100606.75;;;13.92;78.22
22605;BME280;11469;49.024;8.246;2023-01-01T01:48:35;100611.72;;;14.02;77.61
22605;BME280;11469;49.024;8.246;2023-01-01T01:51:01;100612.13;;;14.01;77.39
22605;BME280;11469;49.024;8.246;2023-01-01T01:53:29;100614.16;;;14.04;77.68
22605;BME280;11469;49.024;8.246;2023-01-01T01:56:00;100602.09;;;14.03;77.56
22605;BME280;11469;49.024;8.246;2023-01-01T01:58:28;100602.47;;;14.02;77.57
22605;BME280;11469;49.024;8.246;2023-01-01T02:00:55;100592.81;;;14.03;77.31
22605;BME280;11469;49.024;8.246;2023-01-01T02:06:09;100598.41;;;13.99;77.79
22605;BME280;11469;49.024;8.246;2023-01-01T02:08:34;100573.84;;;14.00;77.51
22605;BME280;11469;49.024;8.246;2023-01-01T02:11:04;100577.47;;;14.00;77.48
22605;BME280;11469;49.024;8.246;2023-01-01T02:13:29;100576.41;;;14.08;76.96
22605;BME280;11469;49.024;8.246;2023-01-01T02:16:17;100578.44;;;14.11;77.20
22605;BME280;11469;49.024;8.246;2023-01-01T02:21:24;100580.72;;;14.02;77.13
22605;BME280;11469;49.024;8.246;2023-01-01T02:29:28;100582.38;;;14.03;77.15
22605;BME280;11469;49.024;8.246;2023-01-01T02:34:29;100575.75;;;13.92;77.88
22605;BME280;11469;49.024;8.246;2023-01-01T02:36:59;100589.72;;;13.85;78.22
22605;BME280;11469;49.024;8.246;2023-01-01T02:39:28;100582.16;;;13.89;78.05
22605;BME280;11469;49.024;8.246;2023-01-01T02:41:57;100574.44;;;13.86;77.84
22605;BME280;11469;49.024;8.246;2023-01-01T02:44:26;100577.59;;;13.81;78.50
22605;BME280;11469;49.024;8.246;2023-01-01T02:46:53;100581.94;;;13.75;78.78
22605;BME280;11469;49.024;8.246;2023-01-01T02:49:18;100576.22;;;13.71;79.03
22605;BME280;11469;49.024;8.246;2023-01-01T03:08:11;100584.97;;;13.63;79.20
22605;BME280;11469;49.024;8.246;2023-01-01T03:13:41;100597.00;;;13.59;79.06
22605;BME280;11469;49.024;8.246;2023-01-01T03:16:26;100588.59;;;13.63;78.77
22605;BME280;11469;49.024;8.246;2023-01-01T03:18:57;100594.75;;;13.72;78.48
22605;BME280;11469;49.024;8.246;2023-01-01T03:24:51;100592.00;;;13.76;78.04
22605;BME280;11469;49.024;8.246;2023-01-01T03:29:46;100595.69;;;13.80;77.33
22605;BME280;11469;49.024;8.246;2023-01-01T03:32:19;100599.31;;;13.80;77.44
22605;BME280;11469;49.024;8.246;2023-01-01T03:34:51;100598.94;;;13.82;76.98
22605;BME280;11469;49.024;8.246;2023-01-01T03:37:26;100594.06;;;13.79;77.37
22605;BME280;11469;49.024;8.246;2023-01-01T03:39:56;100597.31;;;13.81;76.97
22605;BME280;11469;49.024;8.246;2023-01-01T03:42:31;100589.19;;;13.76;76.95
22605;BME280;11469;49.024;8.246;2023-01-01T03:45:03;100595.56;;;13.73;77.08
22605;BME280;11469;49.024;8.246;2023-01-01T03:47:29;100594.75;;;13.72;76.69
22605;BME280;11469;49.024;8.246;2023-01-01T03:49:56;100589.94;;;13.73;76.96
22605;BME280;11469;49.024;8.246;2023-01-01T03:55:23;100599.19;;;13.70;76.88
22605;BME280;11469;49.024;8.246;2023-01-01T04:00:39;100601.22;;;13.73;76.29
22605;BME280;11469;49.024;8.246;2023-01-01T04:03:21;100598.75;;;13.68;76.42
22605;BME280;11469;49.024;8.246;2023-01-01T04:05:47;100596.31;;;13.66;76.71
22605;BME280;11469;49.024;8.246;2023-01-01T04:08:13;100593.13;;;13.71;76.39
22605;BME280;11469;49.024;8.246;2023-01-01T04:10:42;100600.00;;;13.70;76.53
22605;BME280;11469;49.024;8.246;2023-01-01T04:13:09;100597.94;;;13.67;76.62
22605;BME280;11469;49.024;8.246;2023-01-01T04:15:35;100590.66;;;13.66;76.46
22605;BME280;11469;49.024;8.246;2023-01-01T04:18:00;100600.31;;;13.65;76.89
22605;BME280;11469;49.024;8.246;2023-01-01T04:20:26;100592.72;;;13.69;76.24
22605;BME280;11469;49.024;8.246;2023-01-01T04:22:55;100606.84;;;13.73;76.20
22605;BME280;11469;49.024;8.246;2023-01-01T04:25:21;100614.81;;;13.67;76.43
22605;BME280;11469;49.024;8.246;2023-01-01T04:27:47;100613.50;;;13.61;77.27
22605;BME280;11469;49.024;8.246;2023-01-01T04:30:13;100607.88;;;13.61;76.95
22605;BME280;11469;49.024;8.246;2023-01-01T04:32:40;100611.50;;;13.61;77.01
22605;BME280;11469;49.024;8.246;2023-01-01T04:35:07;100607.94;;;13.65;77.00
22605;BME280;11469;49.024;8.246;2023-01-01T04:37:35;100614.81;;;13.67;77.05
22605;BME280;11469;49.024;8.246;2023-01-01T04:40:01;100619.22;;;13.65;76.88
22605;BME280;11469;49.024;8.246;2023-01-01T04:42:27;100614.66;;;13.56;77.73
22605;BME280;11469;49.024;8.246;2023-01-01T04:44:52;100617.53;;;13.60;77.17
22605;BME280;11469;49.024;8.246;2023-01-01T04:47:17;100621.59;;;13.63;77.32
22605;BME280;11469;49.024;8.246;2023-01-01T04:49:43;100616.00;;;13.66;77.12
22605;BME280;11469;49.024;8.246;2023-01-01T04:52:08;100627.59;;;13.61;77.59
22605;BME280;11469;49.024;8.246;2023-01-01T04:54:33;100630.09;;;13.66;77.19
22605;BME280;11469;49.024;8.246;2023-01-01T04:56:59;100636.41;;;13.59;77.44
22605;BME280;11469;49.024;8.246;2023-01-01T04:59:24;100638.81;;;13.57;77.62
22605;BME280;11469;49.024;8.246;2023-01-01T05:01:50;100636.22;;;13.49;78.00
22605;BME280;11469;49.024;8.246;2023-01-01T05:04:15;100639.84;;;13.49;77.92
22605;BME280;11469;49.024;8.246;2023-01-01T05:06:41;100652.31;;;13.48;78.27
22605;BME280;11469;49.024;8.246;2023-01-01T05:09:08;100651.13;;;13.49;78.00
22605;BME280;11469;49.024;8.246;2023-01-01T05:11:33;100648.56;;;13.41;78.27
22605;BME280;11469;49.024;8.246;2023-01-01T05:13:59;100648.94;;;13.39;78.86
22605;BME280;11469;49.024;8.246;2023-01-01T05:16:27;100649.25;;;13.34;78.84
22605;BME280;11469;49.024;8.246;2023-01-01T05:18:53;100657.44;;;13.43;78.34
22605;BME280;11469;49.024;8.246;2023-01-01T05:21:21;100655.31;;;13.36;78.79
22605;BME280;11469;49.024;8.246;2023-01-01T05:23:47;100658.72;;;13.26;79.31
22605;BME280;11469;49.024;8.246;2023-01-01T05:26:19;100657.88;;;13.22;79.92
22605;BME280;11469;49.024;8.246;2023-01-01T05:28:46;100659.19;;;13.28;78.99
22605;BME280;11469;49.024;8.246;2023-01-01T05:31:14;100657.44;;;13.20;79.74
22605;BME280;11469;49.024;8.246;2023-01-01T05:33:40;100664.81;;;13.09;80.15
22605;BME280;11469;49.024;8.246;2023-01-01T05:36:14;100665.88;;;13.01;80.81
22605;BME280;11469;49.024;8.246;2023-01-01T05:38:40;100661.81;;;12.98;80.84
22605;BME280;11469;49.024;8.246;2023-01-01T05:41:06;100667.34;;;12.94;81.01
22605;BME280;11469;49.024;8.246;2023-01-01T05:43:34;100677.28;;;12.88;81.22
22605;BME280;11469;49.024;8.246;2023-01-01T05:46:05;100682.31;;;12.79;81.77
22605;BME280;11469;49.024;8.246;2023-01-01T05:48:32;100679.00;;;12.74;82.04
22605;BME280;11469;49.024;8.246;2023-01-01T05:51:04;100682.03;;;12.65;81.99
22605;BME280;11469;49.024;8.246;2023-01-01T05:53:30;100677.72;;;12.52;83.00
22605;BME280;11469;49.024;8.246;2023-01-01T05:55:56;100685.16;;;12.44;83.38
22605;BME280;11469;49.024;8.246;2023-01-01T05:58:22;100684.13;;;12.33;83.83
22605;BME280;11469;49.024;8.246;2023-01-01T06:00:47;100691.97;;;12.24;84.83
22605;BME280;11469;49.024;8.246;2023-01-01T06:03:12;100685.81;;;12.18;84.48
22605;BME280;11469;49.024;8.246;2023-01-01T06:05:38;100691.34;;;12.15;84.84
22605;BME280;11469;49.024;8.246;2023-01-01T06:08:03;100690.34;;;12.07;84.99
22605;BME280;11469;49.024;8.246;2023-01-01T06:10:29;100692.97;;;12.00;85.56
22605;BME280;11469;49.024;8.246;2023-01-01T06:12:54;100697.59;;;11.92;85.96
22605;BME280;11469;49.024;8.246;2023-01-01T06:15:26;100695.88;;;11.88;85.98
22605;BME280;11469;49.024;8.246;2023-01-01T06:17:51;100706.53;;;11.79;86.52
22605;BME280;11469;49.024;8.246;2023-01-01T06:20:17;100691.53;;;11.75;86.58
22605;BME280;11469;49.024;8.246;2023-01-01T06:22:43;100694.53;;;11.66;87.13
22605;BME280;11469;49.024;8.246;2023-01-01T06:25:09;100696.78;;;11.60;87.30
22605;BME280;11469;49.024;8.246;2023-01-01T06:27:35;100695.50;;;11.58;87.42
22605;BME280;11469;49.024;8.246;2023-01-01T06:30:02;100685.72;;;11.52;87.83
22605;BME280;11469;49.024;8.246;2023-01-01T06:32:27;100693.59;;;11.46;87.95
22605;BME280;11469;49.024;8.246;2023-01-01T06:34:52;100700.84;;;11.47;88.13
22605;BME280;11469;49.024;8.246;2023-01-01T06:37:18;100713.06;;;11.39;88.21
22605;BME280;11469;49.024;8.246;2023-01-01T06:39:43;100716.94;;;11.35;88.68
22605;BME280;11469;49.024;8.246;2023-01-01T06:42:08;100719.03;;;11.38;88.79
22605;BME280;11469;49.024;8.246;2023-01-01T06:44:34;100711.88;;;11.40;88.91
22605;BME280;11469;49.024;8.246;2023-01-01T06:46:59;100720.13;;;11.33;88.97
22605;BME280;11469;49.024;8.246;2023-01-01T06:49:24;100717.94;;;11.26;89.31
22605;BME280;11469;49.024;8.246;2023-01-01T06:51:50;100725.44;;;11.22;88.97
22605;BME280;11469;49.024;8.246;2023-01-01T06:54:15;100717.75;;;11.19;89.23
22605;BME280;11469;49.024;8.246;2023-01-01T06:56:40;100719.53;;;11.12;89.52
22605;BME280;11469;49.024;8.246;2023-01-01T06:59:06;100725.38;;;11.07;89.60
22605;BME280;11469;49.024;8.246;2023-01-01T07:01:33;100727.63;;;11.01;89.62
22605;BME280;11469;49.024;8.246;2023-01-01T07:04:02;100735.13;;;10.97;90.24
22605;BME280;11469;49.024;8.246;2023-01-01T07:06:28;100751.38;;;10.91;90.82
22605;BME280;11469;49.024;8.246;2023-01-01T07:08:54;100749.75;;;10.90;90.86
22605;BME280;11469;49.024;8.246;2023-01-01T07:11:20;100756.88;;;10.88;90.94
22605;BME280;11469;49.024;8.246;2023-01-01T07:13:46;100763.59;;;10.83;91.34
22605;BME280;11469;49.024;8.246;2023-01-01T07:16:11;100759.38;;;10.77;91.20
22605;BME280;11469;49.024;8.246;2023-01-01T07:18:37;100763.84;;;10.78;91.65
22605;BME280;11469;49.024;8.246;2023-01-01T07:21:04;100772.03;;;10.71;91.48
22605;BME280;11469;49.024;8.246;2023-01-01T07:23:32;100775.06;;;10.66;91.98
22605;BME280;11469;49.024;8.246;2023-01-01T07:25:58;100785.34;;;10.62;92.18
22605;BME280;11469;49.024;8.246;2023-01-01T07:28:25;100782.31;;;10.55;92.04
22605;BME280;11469;49.024;8.246;2023-01-01T07:30:51;100778.81;;;10.46;92.49
22605;BME280;11469;49.024;8.246;2023-01-01T07:33:19;100786.22;;;10.38;93.28
22605;BME280;11469;49.024;8.246;2023-01-01T07:35:45;100787.97;;;10.30;93.62
22605;BME280;11469;49.024;8.246;2023-01-01T07:38:12;100786.56;;;10.24;93.85
22605;BME280;11469;49.024;8.246;2023-01-01T07:40:37;100783.41;;;10.26;93.90
22605;BME280;11469;49.024;8.246;2023-01-01T07:43:03;100793.69;;;10.22;93.88
22605;BME280;11469;49.024;8.246;2023-01-01T07:45:29;100800.16;;;10.14;94.11
22605;BME280;11469;49.024;8.246;2023-01-01T07:47:56;100792.44;;;9.98;94.34
22605;BME280;11469;49.024;8.246;2023-01-01T07:50:24;100815.44;;;9.92;94.71
22605;BME280;11469;49.024;8.246;2023-01-01T07:52:50;100807.28;;;9.87;94.45
22605;BME280;11469;49.024;8.246;2023-01-01T07:55:17;100808.53;;;9.77;95.28
22605;BME280;11469;49.024;8.246;2023-01-01T07:57:43;100814.00;;;9.74;95.38
22605;BME280;11469;49.024;8.246;2023-01-01T08:00:11;100818.91;;;9.77;95.55
22605;BME280;11469;49.024;8.246;2023-01-01T08:02:37;100821.25;;;9.75;96.19
22605;BME280;11469;49.024;8.246;2023-01-01T08:05:03;100826.50;;;9.76;96.10
22605;BME280;11469;49.024;8.246;2023-01-01T08:07:28;100832.44;;;9.75;96.08
22605;BME280;11469;49.024;8.246;2023-01-01T08:09:53;100832.78;;;9.73;96.29
22605;BME280;11469;49.024;8.246;2023-01-01T08:12:19;100840.00;;;9.74;96.39
22605;BME280;11469;49.024;8.246;2023-01-01T08:14:44;100835.72;;;9.77;97.10
22605;BME280;11469;49.024;8.246;2023-01-01T08:17:10;100832.69;;;9.82;96.78
22605;BME280;11469;49.024;8.246;2023-01-01T08:19:35;100836.44;;;9.86;97.57
22605;BME280;11469;49.024;8.246;2023-01-01T08:22:00;100833.63;;;9.98;97.67
22605;BME280;11469;49.024;8.246;2023-01-01T08:24:26;100830.25;;;10.05;97.13
22605;BME280;11469;49.024;8.246;2023-01-01T08:26:51;100829.00;;;10.14;97.50
22605;BME280;11469;49.024;8.246;2023-01-01T08:29:18;100832.66;;;10.27;97.14
22605;BME280;11469;49.024;8.246;2023-01-01T08:31:43;100830.34;;;10.29;96.82
22605;BME280;11469;49.024;8.246;2023-01-01T08:34:09;100834.66;;;10.39;96.69
22605;BME280;11469;49.024;8.246;2023-01-01T08:36:35;100833.69;;;10.59;96.76
22605;BME280;11469;49.024;8.246;2023-01-01T08:39:01;100835.31;;;10.84;95.03
22605;BME280;11469;49.024;8.246;2023-01-01T08:41:26;100835.63;;;10.95;94.52
22605;BME280;11469;49.024;8.246;2023-01-01T08:43:52;100836.41;;;11.08;93.80
22605;BME280;11469;49.024;8.246;2023-01-01T08:46:17;100839.75;;;11.25;92.16
22605;BME280;11469;49.024;8.246;2023-01-01T08:48:42;100845.94;;;11.31;91.81
22605;BME280;11469;49.024;8.246;2023-01-01T08:51:09;100853.84;;;11.41;91.29
22605;BME280;11469;49.024;8.246;2023-01-01T08:53:34;100844.56;;;11.53;90.33
22605;BME280;11469;49.024;8.246;2023-01-01T08:56:05;100845.13;;;11.58;90.55
22605;BME280;11469;49.024;8.246;2023-01-01T08:58:31;100833.38;;;11.69;89.21
22605;BME280;11469;49.024;8.246;2023-01-01T09:00:57;100842.50;;;11.78;88.70
22605;BME280;11469;49.024;8.246;2023-01-01T09:03:26;100845.09;;;11.86;88.10
22605;BME280;11469;49.024;8.246;2023-01-01T09:05:52;100840.84;;;11.92;87.50
22605;BME280;11469;49.024;8.246;2023-01-01T09:08:18;100851.38;;;11.95;87.60
22605;BME280;11469;49.024;8.246;2023-01-01T09:10:44;100843.94;;;12.03;86.94
22605;BME280;11469;49.024;8.246;2023-01-01T09:13:11;100849.41;;;12.12;86.66
22605;BME280;11469;49.024;8.246;2023-01-01T09:15:38;100849.22;;;12.20;86.60
22605;BME280;11469;49.024;8.246;2023-01-01T09:18:04;100848.25;;;12.28;86.10
22605;BME280;11469;49.024;8.246;2023-01-01T09:20:29;100854.00;;;12.36;85.32
22605;BME280;11469;49.024;8.246;2023-01-01T09:22:55;100855.84;;;12.44;84.83
22605;BME280;11469;49.024;8.246;2023-01-01T09:25:20;100865.63;;;12.50;84.59
22605;BME280;11469;49.024;8.246;2023-01-01T09:27:46;100872.16;;;12.54;84.53
22605;BME280;11469;49.024;8.246;2023-01-01T09:30:11;100867.44;;;12.58;84.51
22605;BME280;11469;49.024;8.246;2023-01-01T09:32:37;100865.16;;;12.63;83.82
22605;BME280;11469;49.024;8.246;2023-01-01T09:35:03;100874.28;;;12.76;84.22
22605;BME280;11469;49.024;8.246;2023-01-01T09:37:28;100875.19;;;12.80;83.94
22605;BME280;11469;49.024;8.246;2023-01-01T09:39:55;100877.72;;;12.85;83.83
22605;BME280;11469;49.024;8.246;2023-01-01T09:44:56;100874.00;;;12.97;83.81
22605;BME280;11469;49.024;8.246;2023-01-01T09:50:02;100877.06;;;13.08;82.15
22605;BME280;11469;49.024;8.246;2023-01-01T09:52:38;100868.69;;;13.11;81.75
22605;BME280;11469;49.024;8.246;2023-01-01T09:55:15;100886.66;;;13.22;80.68
22605;BME280;11469;49.024;8.246;2023-01-01T09:57:43;100888.44;;;13.31;80.10
22605;BME280;11469;49.024;8.246;2023-01-01T10:00:15;100897.94;;;13.42;79.97
22605;BME280;11469;49.024;8.246;2023-01-01T10:10:40;100889.78;;;13.75;77.23
22605;BME280;11469;49.024;8.246;2023-01-01T10:15:40;100884.66;;;13.81;76.62
22605;BME280;11469;49.024;8.246;2023-01-01T10:18:16;100883.47;;;13.82;76.99
22605;BME280;11469;49.024;8.246;2023-01-01T10:23:41;100880.44;;;13.90;76.43
22605;BME280;11469;49.024;8.246;2023-01-01T10:26:12;100869.72;;;14.00;76.16
22605;BME280;11469;49.024;8.246;2023-01-01T10:28:46;100864.25;;;14.07;76.27
22605;BME280;11469;49.024;8.246;2023-01-01T10:31:17;100854.66;;;14.11;75.06
22605;BME280;11469;49.024;8.246;2023-01-01T10:33:44;100862.38;;;14.14;75.46
22605;BME280;11469;49.024;8.246;2023-01-01T10:36:13;100866.91;;;14.22;75.87
22605;BME280;11469;49.024;8.246;2023-01-01T10:38:39;100869.88;;;14.29;76.12
22605;BME280;11469;49.024;8.246;2023-01-01T10:41:09;100863.91;;;14.35;74.72
22605;BME280;11469;49.024;8.246;2023-01-01T10:43:36;100870.88;;;14.41;73.71
22605;BME280;11469;49.024;8.246;2023-01-01T10:46:02;100858.06;;;14.43;73.82
22605;BME280;11469;49.024;8.246;2023-01-01T10:48:30;100856.56;;;14.49;72.60
22605;BME280;11469;49.024;8.246;2023-01-01T10:51:00;100851.78;;;14.53;72.14
22605;BME280;11469;49.024;8.246;2023-01-01T10:53:51;100847.16;;;14.68;71.50
22605;BME280;11469;49.024;8.246;2023-01-01T10:56:19;100839.69;;;14.79;70.84
22605;BME280;11469;49.024;8.246;2023-01-01T10:58:52;100833.28;;;14.82;71.07
22605;BME280;11469;49.024;8.246;2023-01-01T11:01:28;100830.56;;;14.89;69.63
22605;BME280;11469;49.024;8.246;2023-01-01T11:06:22;100826.63;;;14.94;70.15
22605;BME280;11469;49.024;8.246;2023-01-01T11:08:50;100817.00;;;14.99;70.20
22605;BME280;11469;49.024;8.246;2023-01-01T11:11:43;100823.09;;;15.01;69.60
22605;BME280;11469;49.024;8.246;2023-01-01T11:14:25;100813.81;;;15.00;68.86
22605;BME280;11469;49.024;8.246;2023-01-01T11:16:51;100812.34;;;15.13;68.30
22605;BME280;11469;49.024;8.246;2023-01-01T11:19:27;100802.09;;;15.32;66.95
22605;BME280;11469;49.024;8.246;2023-01-01T11:21:53;100796.22;;;15.44;66.66
22605;BME280;11469;49.024;8.246;2023-01-01T11:24:20;100811.66;;;15.53;66.51
22605;BME280;11469;49.024;8.246;2023-01-01T11:26:47;100804.13;;;15.65;65.49
22605;BME280;11469;49.024;8.246;2023-01-01T11:31:43;100803.13;;;15.83;65.36
22605;BME280;11469;49.024;8.246;2023-01-01T11:34:31;100786.31;;;15.98;63.70
22605;BME280;11469;49.024;8.246;2023-01-01T11:37:26;100784.00;;;16.07;63.04
22605;BME280;11469;49.024;8.246;2023-01-01T11:39:53;100789.25;;;16.12;63.38
22605;BME280;11469;49.024;8.246;2023-01-01T11:42:25;100778.78;;;16.16;63.18
22605;BME280;11469;49.024;8.246;2023-01-01T11:44:53;100780.50;;;16.27;61.59
22605;BME280;11469;49.024;8.246;2023-01-01T11:49:56;100770.91;;;16.39;61.63
22605;BME280;11469;49.024;8.246;2023-01-01T11:52:27;100766.09;;;16.43;60.92
22605;BME280;11469;49.024;8.246;2023-01-01T11:55:01;100756.38;;;16.41;61.34
22605;BME280;11469;49.024;8.246;2023-01-01T11:57:27;100760.84;;;16.42;60.64
22605;BME280;11469;49.024;8.246;2023-01-01T11:59:59;100761.25;;;16.44;61.14
22605;BME280;11469;49.024;8.246;2023-01-01T12:08:08;100754.88;;;16.61;60.07
22605;BME280;11469;49.024;8.246;2023-01-01T12:10:50;100756.56;;;16.66;59.88
22605;BME280;11469;49.024;8.246;2023-01-01T12:13:24;100761.06;;;16.74;59.97
22605;BME280;11469;49.024;8.246;2023-01-01T12:18:55;100754.63;;;16.80;59.04
22605;BME280;11469;49.024;8.246;2023-01-01T12:21:26;100759.56;;;16.90;58.49
22605;BME280;11469;49.024;8.246;2023-01-01T12:23:53;100740.97;;;16.97;58.55
22605;BME280;11469;49.024;8.246;2023-01-01T12:26:45;100736.16;;;17.01;58.65
22605;BME280;11469;49.024;8.246;2023-01-01T12:29:54;100734.16;;;17.12;58.65
22605;BME280;11469;49.024;8.246;2023-01-01T12:35:34;100726.50;;;17.23;57.93
22605;BME280;11469;49.024;8.246;2023-01-01T12:41:05;100706.28;;;17.28;56.95
22605;BME280;11469;49.024;8.246;2023-01-01T12:52:54;100699.84;;;17.35;56.07
22605;BME280;11469;49.024;8.246;2023-01-01T12:58:13;100694.97;;;17.32;56.13
22605;BME280;11469;49.024;8.246;2023-01-01T13:00:47;100696.19;;;17.27;56.41
22605;BME280;11469;49.024;8.246;2023-01-01T13:03:19;100691.31;;;17.20;56.18
22605;BME280;11469;49.024;8.246;2023-01-01T13:05:49;100696.53;;;17.15;56.89
22605;BME280;11469;49.024;8.246;2023-01-01T13:08:15;100688.03;;;17.15;57.28
22605;BME280;11469;49.024;8.246;2023-01-01T13:10:46;100685.19;;;17.11;57.44
22605;BME280;11469;49.024;8.246;2023-01-01T13:13:12;100687.63;;;17.09;57.24
22605;BME280;11469;49.024;8.246;2023-01-01T13:20:41;100690.50;;;17.27;56.57
22605;BME280;11469;49.024;8.246;2023-01-01T13:26:30;100692.53;;;17.27;56.64
22605;BME280;11469;49.024;8.246;2023-01-01T13:35:13;100687.69;;;17.27;56.92
22605;BME280;11469;49.024;8.246;2023-01-01T13:40:01;100688.09;;;17.33;57.30
22605;BME280;11469;49.024;8.246;2023-01-01T13:42:43;100698.59;;;17.21;56.55
22605;BME280;11469;49.024;8.246;2023-01-01T14:01:36;100694.06;;;16.96;57.74
22605;BME280;11469;49.024;8.246;2023-01-01T14:04:11;100691.22;;;16.92;58.05
22605;BME280;11469;49.024;8.246;2023-01-01T14:06:42;100691.22;;;16.92;58.22
22605;BME280;11469;49.024;8.246;2023-01-01T14:09:15;100690.75;;;16.83;58.96
22605;BME280;11469;49.024;8.246;2023-01-01T14:11:41;100683.47;;;16.78;59.04
22605;BME280;11469;49.024;8.246;2023-01-01T14:14:26;100689.91;;;16.72;59.78
22605;BME280;11469;49.024;8.246;2023-01-01T14:17:00;100688.66;;;16.66;59.70
22605;BME280;11469;49.024;8.246;2023-01-01T14:19:26;100695.88;;;16.63;59.98
22605;BME280;11469;49.024;8.246;2023-01-01T14:21:53;100681.31;;;16.61;60.46
22605;BME280;11469;49.024;8.246;2023-01-01T14:24:20;100680.09;;;16.58;60.54
22605;BME280;11469;49.024;8.246;2023-01-01T14:26:47;100692.59;;;16.57;60.67
22605;BME280;11469;49.024;8.246;2023-01-01T14:29:19;100672.88;;;16.65;60.56
22605;BME280;11469;49.024;8.246;2023-01-01T14:31:46;100677.34;;;16.69;60.46
22605;BME280;11469;49.024;8.246;2023-01-01T14:34:21;100670.91;;;16.72;60.46
22605;BME280;11469;49.024;8.246;2023-01-01T14:36:50;100667.53;;;16.56;61.70
22605;BME280;11469;49.024;8.246;2023-01-01T14:39:23;100663.50;;;16.50;62.40
22605;BME280;11469;49.024;8.246;2023-01-01T14:41:50;100659.03;;;16.45;62.89
22605;BME280;11469;49.024;8.246;2023-01-01T14:44:19;100667.88;;;16.40;63.42
22605;BME280;11469;49.024;8.246;2023-01-01T14:46:48;100680.38;;;16.36;63.50
22605;BME280;11469;49.024;8.246;2023-01-01T14:49:23;100687.63;;;16.33;63.86
22605;BME280;11469;49.024;8.246;2023-01-01T14:52:22;100681.91;;;16.26;64.14
22605;BME280;11469;49.024;8.246;2023-01-01T14:54:49;100683.47;;;16.16;64.65
22605;BME280;11469;49.024;8.246;2023-01-01T14:57:19;100669.69;;;16.11;64.94
22605;BME280;11469;49.024;8.246;2023-01-01T14:59:49;100675.75;;;16.06;65.53
22605;BME280;11469;49.024;8.246;2023-01-01T15:02:26;100677.69;;;15.99;66.10
22605;BME280;11469;49.024;8.246;2023-01-01T15:04:53;100687.75;;;15.92;66.73
22605;BME280;11469;49.024;8.246;2023-01-01T15:09:47;100693.28;;;15.78;67.57
22605;BME280;11469;49.024;8.246;2023-01-01T15:12:13;100700.47;;;15.72;68.04
22605;BME280;11469;49.024;8.246;2023-01-01T15:14:43;100692.75;;;15.66;68.70